sensor_id;sensor_type;location;lat;lon;timestamp;temperature;humidity
13928;DHT22;7036;50.834;4.718;2023-06-14T00:01:16;27.50;43.80
13928;DHT22;7036;50.834;4.718;2023-06-14T00:03:43;27.50;43.80
13928;DHT22;7036;50.834;4.718;2023-06-14T00:06:11;27.50;44.70
13928;DHT22;7036;50.834;4.718;2023-06-14T00:08:38;27.50;44.00
13928;DHT22;7036;50.834;4.718;2023-06-14T00:11:05;27.50;43.90
13928;DHT22;7036;50.834;4.718;2023-06-14T00:13:32;27.50;43.90
13928;DHT22;7036;50.834;4.718;2023-06-14T00:15:59;27.50;43.90
13928;DHT22;7036;50.834;4.718;2023-06-14T00:18:26;27.50;44.20
13928;DHT22;7036;50.834;4.718;2023-06-14T00:20:54;27.50;44.10
13928;DHT22;7036;50.834;4.718;2023-06-14T00:23:20;27.50;44.00
13928;DHT22;7036;50.834;4.718;2023-06-14T00:25:47;27.50;44.60
13928;DHT22;7036;50.834;4.718;2023-06-14T00:28:14;27.50;44.00
13928;DHT22;7036;50.834;4.718;2023-06-14T00:30:41;27.50;44.00
13928;DHT22;7036;50.834;4.718;2023-06-14T00:33:08;27.50;44.00
13928;DHT22;7036;50.834;4.718;2023-06-14T00:35:35;27.40;44.00
13928;DHT22;7036;50.834;4.718;2023-06-14T00:38:02;27.50;44.10
13928;DHT22;7036;50.834;4.718;2023-06-14T00:40:29;27.40;44.00
13928;DHT22;7036;50.834;4.718;2023-06-14T00:42:56;27.50;44.10
13928;DHT22;7036;50.834;4.718;2023-06-14T00:45:23;27.40;44.10
13928;DHT22;7036;50.834;4.718;2023-06-14T00:47:50;27.40;44.10
13928;DHT22;7036;50.834;4.718;2023-06-14T00:50:17;27.40;44.80
13928;DHT22;7036;50.834;4.718;2023-06-14T00:52:44;27.40;44.10
13928;DHT22;7036;50.834;4.718;2023-06-14T00:55:11;27.40;44.70
13928;DHT22;7036;50.834;4.718;2023-06-14T00:57:38;27.40;44.10
13928;DHT22;7036;50.834;4.718;2023-06-14T01:00:05;27.40;44.10
13928;DHT22;7036;50.834;4.718;2023-06-14T01:02:32;27.40;44.20
13928;DHT22;7036;50.834;4.718;2023-06-14T01:04:59;27.40;44.20
13928;DHT22;7036;50.834;4.718;2023-06-14T01:07:41;27.40;44.20
13928;DHT22;7036;50.834;4.718;2023-06-14T01:15:23;27.40;44.20
13928;DHT22;7036;50.834;4.718;2023-06-14T01:17:49;27.40;44.20
13928;DHT22;7036;50.834;4.718;2023-06-14T01:20:16;27.40;44.20
13928;DHT22;7036;50.834;4.718;2023-06-14T01:22:48;27.40;44.20
13928;DHT22;7036;50.834;4.718;2023-06-14T01:25:10;27.40;44.20
13928;DHT22;7036;50.834;4.718;2023-06-14T01:27:37;27.40;44.90
13928;DHT22;7036;50.834;4.718;2023-06-14T01:30:04;27.40;44.30
13928;DHT22;7036;50.834;4.718;2023-06-14T01:32:32;27.40;44.90
13928;DHT22;7036;50.834;4.718;2023-06-14T01:34:58;27.40;44.30
13928;DHT22;7036;50.834;4.718;2023-06-14T01:37:25;27.30;44.30
13928;DHT22;7036;50.834;4.718;2023-06-14T01:39:52;27.30;44.30
13928;DHT22;7036;50.834;4.718;2023-06-14T01:42:19;27.30;44.30
13928;DHT22;7036;50.834;4.718;2023-06-14T01:44:46;27.30;44.30
13928;DHT22;7036;50.834;4.718;2023-06-14T01:47:14;27.30;45.10
13928;DHT22;7036;50.834;4.718;2023-06-14T01:49:40;27.30;44.30
13928;DHT22;7036;50.834;4.718;2023-06-14T01:52:07;27.30;44.30
13928;DHT22;7036;50.834;4.718;2023-06-14T01:54:34;27.30;44.40
13928;DHT22;7036;50.834;4.718;2023-06-14T01:57:01;27.30;44.40
13928;DHT22;7036;50.834;4.718;2023-06-14T01:59:28;27.30;44.50
13928;DHT22;7036;50.834;4.718;2023-06-14T02:01:55;27.30;44.40
13928;DHT22;7036;50.834;4.718;2023-06-14T02:04:22;27.30;44.40
13928;DHT22;7036;50.834;4.718;2023-06-14T02:06:49;27.30;44.40
13928;DHT22;7036;50.834;4.718;2023-06-14T02:09:16;27.30;44.40
13928;DHT22;7036;50.834;4.718;2023-06-14T02:11:43;27.30;44.40
13928;DHT22;7036;50.834;4.718;2023-06-14T02:14:10;27.30;44.50
13928;DHT22;7036;50.834;4.718;2023-06-14T02:16:37;27.30;44.60
13928;DHT22;7036;50.834;4.718;2023-06-14T02:19:07;27.20;44.50
13928;DHT22;7036;50.834;4.718;2023-06-14T02:21:31;27.30;44.50
13928;DHT22;7036;50.834;4.718;2023-06-14T02:23:58;27.20;44.50
13928;DHT22;7036;50.834;4.718;2023-06-14T02:26:25;27.30;44.50
13928;DHT22;7036;50.834;4.718;2023-06-14T02:28:52;27.30;44.50
13928;DHT22;7036;50.834;4.718;2023-06-14T02:31:19;27.20;44.50
13928;DHT22;7036;50.834;4.718;2023-06-14T02:33:45;27.20;44.50
13928;DHT22;7036;50.834;4.718;2023-06-14T02:36:13;27.20;44.60
13928;DHT22;7036;50.834;4.718;2023-06-14T02:38:40;27.20;44.60
13928;DHT22;7036;50.834;4.718;2023-06-14T02:41:08;27.20;44.60
13928;DHT22;7036;50.834;4.718;2023-06-14T02:43:34;27.20;44.50
13928;DHT22;7036;50.834;4.718;2023-06-14T02:46:01;27.20;44.50
13928;DHT22;7036;50.834;4.718;2023-06-14T02:48:29;27.20;44.70
13928;DHT22;7036;50.834;4.718;2023-06-14T02:50:56;27.20;44.70
13928;DHT22;7036;50.834;4.718;2023-06-14T02:53:24;27.20;44.70
13928;DHT22;7036;50.834;4.718;2023-06-14T02:55:50;27.20;44.50
13928;DHT22;7036;50.834;4.718;2023-06-14T02:58:17;27.20;44.60
13928;DHT22;7036;50.834;4.718;2023-06-14T03:00:45;27.20;44.70
13928;DHT22;7036;50.834;4.718;2023-06-14T03:03:12;27.20;44.70
13928;DHT22;7036;50.834;4.718;2023-06-14T03:05:44;27.20;44.50
13928;DHT22;7036;50.834;4.718;2023-06-14T03:08:09;27.20;44.60
13928;DHT22;7036;50.834;4.718;2023-06-14T03:10:37;27.20;44.60
13928;DHT22;7036;50.834;4.718;2023-06-14T03:13:04;27.20;44.50
13928;DHT22;7036;50.834;4.718;2023-06-14T03:15:31;27.20;44.50
13928;DHT22;7036;50.834;4.718;2023-06-14T03:17:59;27.20;44.70
13928;DHT22;7036;50.834;4.718;2023-06-14T03:20:26;27.20;44.70
13928;DHT22;7036;50.834;4.718;2023-06-14T03:22:53;27.20;44.50
13928;DHT22;7036;50.834;4.718;2023-06-14T03:25:20;27.20;44.60
13928;DHT22;7036;50.834;4.718;2023-06-14T03:27:49;27.10;44.60
13928;DHT22;7036;50.834;4.718;2023-06-14T03:30:14;27.10;44.60
13928;DHT22;7036;50.834;4.718;2023-06-14T03:32:40;27.10;44.60
13928;DHT22;7036;50.834;4.718;2023-06-14T03:35:07;27.10;44.60
13928;DHT22;7036;50.834;4.718;2023-06-14T03:37:34;27.10;44.60
13928;DHT22;7036;50.834;4.718;2023-06-14T03:40:01;27.10;44.60
13928;DHT22;7036;50.834;4.718;2023-06-14T03:42:28;27.10;44.60
13928;DHT22;7036;50.834;4.718;2023-06-14T03:44:55;27.10;44.60
13928;DHT22;7036;50.834;4.718;2023-06-14T03:47:22;27.10;44.60
13928;DHT22;7036;50.834;4.718;2023-06-14T03:49:49;27.10;44.60
13928;DHT22;7036;50.834;4.718;2023-06-14T03:52:16;27.10;44.60
13928;DHT22;7036;50.834;4.718;2023-06-14T03:54:43;27.10;44.60
13928;DHT22;7036;50.834;4.718;2023-06-14T03:57:10;27.10;44.60
13928;DHT22;7036;50.834;4.718;2023-06-14T03:59:37;27.00;44.60
13928;DHT22;7036;50.834;4.718;2023-06-14T04:02:04;27.00;44.60
13928;DHT22;7036;50.834;4.718;2023-06-14T04:04:31;27.10;44.70
13928;DHT22;7036;50.834;4.718;2023-06-14T04:06:58;27.10;44.70
13928;DHT22;7036;50.834;4.718;2023-06-14T04:09:25;27.10;44.70
13928;DHT22;7036;50.834;4.718;2023-06-14T04:11:52;27.10;44.70
13928;DHT22;7036;50.834;4.718;2023-06-14T04:14:19;27.00;44.60
13928;DHT22;7036;50.834;4.718;2023-06-14T04:16:46;27.10;44.70
13928;DHT22;7036;50.834;4.718;2023-06-14T04:19:15;27.00;44.60
13928;DHT22;7036;50.834;4.718;2023-06-14T04:21:42;27.00;44.70
13928;DHT22;7036;50.834;4.718;2023-06-14T04:24:09;27.00;44.70
13928;DHT22;7036;50.834;4.718;2023-06-14T04:26:44;27.00;44.70
13928;DHT22;7036;50.834;4.718;2023-06-14T04:29:08;27.00;44.70
13928;DHT22;7036;50.834;4.718;2023-06-14T04:31:35;27.10;44.80
13928;DHT22;7036;50.834;4.718;2023-06-14T04:34:02;27.00;44.70
13928;DHT22;7036;50.834;4.718;2023-06-14T04:36:29;27.00;44.80
13928;DHT22;7036;50.834;4.718;2023-06-14T04:38:56;27.00;44.70
13928;DHT22;7036;50.834;4.718;2023-06-14T04:41:22;27.00;44.70
13928;DHT22;7036;50.834;4.718;2023-06-14T04:43:49;27.00;44.80
13928;DHT22;7036;50.834;4.718;2023-06-14T04:46:16;27.00;44.80
13928;DHT22;7036;50.834;4.718;2023-06-14T04:48:43;27.00;44.80
13928;DHT22;7036;50.834;4.718;2023-06-14T04:51:10;27.00;44.80
13928;DHT22;7036;50.834;4.718;2023-06-14T04:53:37;27.00;44.80
13928;DHT22;7036;50.834;4.718;2023-06-14T04:56:04;27.00;44.80
13928;DHT22;7036;50.834;4.718;2023-06-14T04:58:31;27.00;44.80
13928;DHT22;7036;50.834;4.718;2023-06-14T05:00:58;27.00;44.80
13928;DHT22;7036;50.834;4.718;2023-06-14T05:03:25;27.00;45.40
13928;DHT22;7036;50.834;4.718;2023-06-14T05:05:52;27.00;44.90
13928;DHT22;7036;50.834;4.718;2023-06-14T05:08:20;27.00;44.90
13928;DHT22;7036;50.834;4.718;2023-06-14T05:10:45;27.00;44.80
13928;DHT22;7036;50.834;4.718;2023-06-14T05:13:12;27.00;44.90
13928;DHT22;7036;50.834;4.718;2023-06-14T05:15:39;27.00;44.90
13928;DHT22;7036;50.834;4.718;2023-06-14T05:18:06;27.00;44.90
13928;DHT22;7036;50.834;4.718;2023-06-14T05:20:34;27.00;45.10
13928;DHT22;7036;50.834;4.718;2023-06-14T05:23:00;27.00;44.90
13928;DHT22;7036;50.834;4.718;2023-06-14T05:25:27;27.00;44.90
13928;DHT22;7036;50.834;4.718;2023-06-14T05:27:54;27.00;44.90
13928;DHT22;7036;50.834;4.718;2023-06-14T05:30:21;27.00;44.90
13928;DHT22;7036;50.834;4.718;2023-06-14T05:32:48;27.00;44.90
13928;DHT22;7036;50.834;4.718;2023-06-14T05:35:15;27.00;44.90
13928;DHT22;7036;50.834;4.718;2023-06-14T05:37:42;27.00;44.90
13928;DHT22;7036;50.834;4.718;2023-06-14T05:40:09;27.00;44.90
13928;DHT22;7036;50.834;4.718;2023-06-14T05:42:36;27.00;45.50
13928;DHT22;7036;50.834;4.718;2023-06-14T05:45:03;27.00;44.90
13928;DHT22;7036;50.834;4.718;2023-06-14T05:47:30;27.00;44.90
13928;DHT22;7036;50.834;4.718;2023-06-14T05:49:57;27.10;45.00
13928;DHT22;7036;50.834;4.718;2023-06-14T05:52:24;27.00;44.90
13928;DHT22;7036;50.834;4.718;2023-06-14T05:54:51;27.10;45.00
13928;DHT22;7036;50.834;4.718;2023-06-14T05:57:18;27.10;45.10
13928;DHT22;7036;50.834;4.718;2023-06-14T05:59:45;27.10;45.10
13928;DHT22;7036;50.834;4.718;2023-06-14T06:02:11;27.10;45.10
13928;DHT22;7036;50.834;4.718;2023-06-14T06:04:38;27.20;45.20
13928;DHT22;7036;50.834;4.718;2023-06-14T06:07:05;27.20;45.30
13928;DHT22;7036;50.834;4.718;2023-06-14T06:09:32;27.20;45.40
13928;DHT22;7036;50.834;4.718;2023-06-14T06:11:59;27.20;45.30
13928;DHT22;7036;50.834;4.718;2023-06-14T06:14:26;27.30;45.40
13928;DHT22;7036;50.834;4.718;2023-06-14T06:16:53;27.30;45.40
13928;DHT22;7036;50.834;4.718;2023-06-14T06:19:20;27.30;45.50
13928;DHT22;7036;50.834;4.718;2023-06-14T06:21:47;27.40;45.40
13928;DHT22;7036;50.834;4.718;2023-06-14T06:24:14;27.40;45.40
13928;DHT22;7036;50.834;4.718;2023-06-14T06:26:41;27.40;45.40
13928;DHT22;7036;50.834;4.718;2023-06-14T06:29:08;27.50;45.40
13928;DHT22;7036;50.834;4.718;2023-06-14T06:31:35;27.40;45.30
13928;DHT22;7036;50.834;4.718;2023-06-14T06:34:02;27.50;45.40
13928;DHT22;7036;50.834;4.718;2023-06-14T06:36:30;27.50;45.40
13928;DHT22;7036;50.834;4.718;2023-06-14T06:38:56;27.50;45.40
13928;DHT22;7036;50.834;4.718;2023-06-14T06:41:24;27.50;45.40
13928;DHT22;7036;50.834;4.718;2023-06-14T06:43:51;27.50;45.40
13928;DHT22;7036;50.834;4.718;2023-06-14T06:46:18;27.60;45.40
13928;DHT22;7036;50.834;4.718;2023-06-14T06:48:45;27.60;45.40
13928;DHT22;7036;50.834;4.718;2023-06-14T06:51:12;27.60;45.40
13928;DHT22;7036;50.834;4.718;2023-06-14T06:53:41;27.70;45.60
13928;DHT22;7036;50.834;4.718;2023-06-14T06:56:06;27.60;45.40
13928;DHT22;7036;50.834;4.718;2023-06-14T06:58:33;27.60;45.40
13928;DHT22;7036;50.834;4.718;2023-06-14T07:01:00;27.70;45.20
13928;DHT22;7036;50.834;4.718;2023-06-14T07:03:27;27.70;45.40
13928;DHT22;7036;50.834;4.718;2023-06-14T07:05:54;27.70;45.40
13928;DHT22;7036;50.834;4.718;2023-06-14T07:08:21;27.70;45.40
13928;DHT22;7036;50.834;4.718;2023-06-14T07:10:48;27.70;45.40
13928;DHT22;7036;50.834;4.718;2023-06-14T07:13:15;27.70;45.40
13928;DHT22;7036;50.834;4.718;2023-06-14T07:15:42;27.70;45.40
13928;DHT22;7036;50.834;4.718;2023-06-14T07:18:09;27.70;46.20
13928;DHT22;7036;50.834;4.718;2023-06-14T07:20:37;27.70;45.50
13928;DHT22;7036;50.834;4.718;2023-06-14T07:23:06;27.70;45.40
13928;DHT22;7036;50.834;4.718;2023-06-14T07:25:33;27.80;45.40
13928;DHT22;7036;50.834;4.718;2023-06-14T07:28:00;27.80;45.40
13928;DHT22;7036;50.834;4.718;2023-06-14T07:30:27;27.80;44.90
13928;DHT22;7036;50.834;4.718;2023-06-14T07:32:54;27.70;44.50
13928;DHT22;7036;50.834;4.718;2023-06-14T07:35:21;27.70;44.30
13928;DHT22;7036;50.834;4.718;2023-06-14T07:37:48;27.80;44.40
13928;DHT22;7036;50.834;4.718;2023-06-14T07:40:15;27.80;44.30
13928;DHT22;7036;50.834;4.718;2023-06-14T07:42:41;27.80;44.30
13928;DHT22;7036;50.834;4.718;2023-06-14T07:45:08;27.80;44.30
13928;DHT22;7036;50.834;4.718;2023-06-14T07:47:35;27.80;44.30
13928;DHT22;7036;50.834;4.718;2023-06-14T07:50:02;27.80;44.30
13928;DHT22;7036;50.834;4.718;2023-06-14T07:52:29;27.80;44.30
13928;DHT22;7036;50.834;4.718;2023-06-14T07:54:56;27.80;44.20
13928;DHT22;7036;50.834;4.718;2023-06-14T07:57:23;27.80;44.20
13928;DHT22;7036;50.834;4.718;2023-06-14T07:59:51;27.80;44.40
13928;DHT22;7036;50.834;4.718;2023-06-14T08:02:17;27.80;44.30
13928;DHT22;7036;50.834;4.718;2023-06-14T08:04:44;27.90;44.40
13928;DHT22;7036;50.834;4.718;2023-06-14T08:07:11;27.90;44.20
13928;DHT22;7036;50.834;4.718;2023-06-14T08:09:38;27.90;44.20
13928;DHT22;7036;50.834;4.718;2023-06-14T08:12:05;27.90;44.20
13928;DHT22;7036;50.834;4.718;2023-06-14T08:14:33;27.90;44.10
13928;DHT22;7036;50.834;4.718;2023-06-14T08:16:59;27.90;44.20
13928;DHT22;7036;50.834;4.718;2023-06-14T08:19:26;27.90;44.20
13928;DHT22;7036;50.834;4.718;2023-06-14T08:21:53;27.90;44.20
13928;DHT22;7036;50.834;4.718;2023-06-14T08:24:23;27.90;44.20
13928;DHT22;7036;50.834;4.718;2023-06-14T08:26:47;27.90;44.10
13928;DHT22;7036;50.834;4.718;2023-06-14T08:29:14;28.00;44.10
13928;DHT22;7036;50.834;4.718;2023-06-14T08:31:41;27.90;44.10
13928;DHT22;7036;50.834;4.718;2023-06-14T08:34:08;27.90;44.00
13928;DHT22;7036;50.834;4.718;2023-06-14T08:36:37;27.90;44.00
13928;DHT22;7036;50.834;4.718;2023-06-14T08:39:04;27.90;44.00
13928;DHT22;7036;50.834;4.718;2023-06-14T08:41:31;27.90;43.90
13928;DHT22;7036;50.834;4.718;2023-06-14T08:43:58;27.90;43.80
13928;DHT22;7036;50.834;4.718;2023-06-14T08:46:25;27.90;43.80
13928;DHT22;7036;50.834;4.718;2023-06-14T08:48:52;28.00;43.90
13928;DHT22;7036;50.834;4.718;2023-06-14T08:51:19;28.00;43.80
13928;DHT22;7036;50.834;4.718;2023-06-14T08:53:45;27.90;43.70
13928;DHT22;7036;50.834;4.718;2023-06-14T08:56:12;27.90;43.80
13928;DHT22;7036;50.834;4.718;2023-06-14T08:58:43;27.90;43.90
13928;DHT22;7036;50.834;4.718;2023-06-14T09:01:10;28.00;44.00
13928;DHT22;7036;50.834;4.718;2023-06-14T09:03:37;27.90;44.00
13928;DHT22;7036;50.834;4.718;2023-06-14T09:06:04;27.90;43.90
13928;DHT22;7036;50.834;4.718;2023-06-14T09:08:31;27.90;43.90
13928;DHT22;7036;50.834;4.718;2023-06-14T09:10:58;28.00;43.90
13928;DHT22;7036;50.834;4.718;2023-06-14T09:13:26;28.00;43.90
13928;DHT22;7036;50.834;4.718;2023-06-14T09:15:51;27.90;43.80
13928;DHT22;7036;50.834;4.718;2023-06-14T09:18:19;27.90;43.80
13928;DHT22;7036;50.834;4.718;2023-06-14T09:20:46;28.00;43.80
13928;DHT22;7036;50.834;4.718;2023-06-14T09:23:13;27.90;43.70
13928;DHT22;7036;50.834;4.718;2023-06-14T09:25:43;27.90;43.70
13928;DHT22;7036;50.834;4.718;2023-06-14T09:28:12;27.90;43.70
13928;DHT22;7036;50.834;4.718;2023-06-14T09:30:39;27.90;43.50
13928;DHT22;7036;50.834;4.718;2023-06-14T09:33:07;27.90;43.70
13928;DHT22;7036;50.834;4.718;2023-06-14T09:35:34;27.90;43.60
13928;DHT22;7036;50.834;4.718;2023-06-14T09:38:00;27.90;43.40
13928;DHT22;7036;50.834;4.718;2023-06-14T09:40:27;27.90;43.40
13928;DHT22;7036;50.834;4.718;2023-06-14T09:42:54;27.90;43.40
13928;DHT22;7036;50.834;4.718;2023-06-14T09:45:21;27.90;43.40
13928;DHT22;7036;50.834;4.718;2023-06-14T09:47:51;27.90;43.40
13928;DHT22;7036;50.834;4.718;2023-06-14T09:50:15;27.90;44.10
13928;DHT22;7036;50.834;4.718;2023-06-14T09:52:43;27.90;43.20
13928;DHT22;7036;50.834;4.718;2023-06-14T09:55:11;27.90;43.30
13928;DHT22;7036;50.834;4.718;2023-06-14T09:57:36;27.90;43.20
13928;DHT22;7036;50.834;4.718;2023-06-14T10:00:03;27.90;43.20
13928;DHT22;7036;50.834;4.718;2023-06-14T10:02:34;28.00;43.30
13928;DHT22;7036;50.834;4.718;2023-06-14T10:05:09;27.90;43.20
13928;DHT22;7036;50.834;4.718;2023-06-14T10:07:40;27.90;43.30
13928;DHT22;7036;50.834;4.718;2023-06-14T10:10:06;27.90;42.90
13928;DHT22;7036;50.834;4.718;2023-06-14T10:12:33;27.90;42.80
13928;DHT22;7036;50.834;4.718;2023-06-14T10:15:00;27.90;42.60
13928;DHT22;7036;50.834;4.718;2023-06-14T10:17:34;27.90;42.60
13928;DHT22;7036;50.834;4.718;2023-06-14T10:20:33;27.80;42.60
13928;DHT22;7036;50.834;4.718;2023-06-14T10:23:03;27.80;42.90
13928;DHT22;7036;50.834;4.718;2023-06-14T10:25:27;27.80;42.90
13928;DHT22;7036;50.834;4.718;2023-06-14T10:28:01;27.80;42.80
13928;DHT22;7036;50.834;4.718;2023-06-14T10:30:25;27.80;43.00
13928;DHT22;7036;50.834;4.718;2023-06-14T10:33:06;27.80;43.10
13928;DHT22;7036;50.834;4.718;2023-06-14T10:35:35;27.80;43.10
13928;DHT22;7036;50.834;4.718;2023-06-14T10:38:11;27.80;43.00
13928;DHT22;7036;50.834;4.718;2023-06-14T10:40:35;27.80;42.50
13928;DHT22;7036;50.834;4.718;2023-06-14T10:43:15;27.80;42.90
13928;DHT22;7036;50.834;4.718;2023-06-14T10:45:29;27.80;42.80
13928;DHT22;7036;50.834;4.718;2023-06-14T10:47:57;27.80;43.00
13928;DHT22;7036;50.834;4.718;2023-06-14T10:50:27;27.80;42.80
13928;DHT22;7036;50.834;4.718;2023-06-14T10:52:49;27.80;43.00
13928;DHT22;7036;50.834;4.718;2023-06-14T10:55:17;27.80;42.90
13928;DHT22;7036;50.834;4.718;2023-06-14T10:57:56;27.80;42.60
13928;DHT22;7036;50.834;4.718;2023-06-14T11:00:23;27.80;42.30
13928;DHT22;7036;50.834;4.718;2023-06-14T11:05:53;27.80;42.00
13928;DHT22;7036;50.834;4.718;2023-06-14T11:08:39;27.80;41.70
13928;DHT22;7036;50.834;4.718;2023-06-14T11:11:08;27.80;41.90
13928;DHT22;7036;50.834;4.718;2023-06-14T11:13:44;27.80;41.80
13928;DHT22;7036;50.834;4.718;2023-06-14T11:16:11;27.80;41.70
13928;DHT22;7036;50.834;4.718;2023-06-14T11:18:37;27.80;42.00
13928;DHT22;7036;50.834;4.718;2023-06-14T11:21:04;27.80;41.90
13928;DHT22;7036;50.834;4.718;2023-06-14T11:23:31;27.80;42.10
13928;DHT22;7036;50.834;4.718;2023-06-14T11:25:59;27.80;42.20
13928;DHT22;7036;50.834;4.718;2023-06-14T11:28:35;27.80;41.90
13928;DHT22;7036;50.834;4.718;2023-06-14T11:31:02;27.80;42.00
13928;DHT22;7036;50.834;4.718;2023-06-14T11:33:29;27.80;41.90
13928;DHT22;7036;50.834;4.718;2023-06-14T11:35:55;27.80;41.80
13928;DHT22;7036;50.834;4.718;2023-06-14T11:38:22;27.80;42.00
13928;DHT22;7036;50.834;4.718;2023-06-14T11:40:49;27.80;41.70
13928;DHT22;7036;50.834;4.718;2023-06-14T11:43:16;27.80;41.70
13928;DHT22;7036;50.834;4.718;2023-06-14T11:45:43;27.80;42.00
13928;DHT22;7036;50.834;4.718;2023-06-14T11:48:10;27.80;41.50
13928;DHT22;7036;50.834;4.718;2023-06-14T11:50:37;27.80;41.10
13928;DHT22;7036;50.834;4.718;2023-06-14T11:53:04;27.80;41.40
13928;DHT22;7036;50.834;4.718;2023-06-14T11:55:31;27.80;41.10
13928;DHT22;7036;50.834;4.718;2023-06-14T11:57:58;27.80;40.80
13928;DHT22;7036;50.834;4.718;2023-06-14T12:00:25;27.80;40.40
13928;DHT22;7036;50.834;4.718;2023-06-14T12:02:56;27.70;40.10
13928;DHT22;7036;50.834;4.718;2023-06-14T12:05:20;27.70;40.00
13928;DHT22;7036;50.834;4.718;2023-06-14T12:07:46;27.70;40.60
13928;DHT22;7036;50.834;4.718;2023-06-14T12:10:13;27.70;40.20
13928;DHT22;7036;50.834;4.718;2023-06-14T12:12:40;27.70;40.20
13928;DHT22;7036;50.834;4.718;2023-06-14T12:15:07;27.70;40.00
13928;DHT22;7036;50.834;4.718;2023-06-14T12:17:34;27.70;40.10
13928;DHT22;7036;50.834;4.718;2023-06-14T12:20:08;27.70;40.20
13928;DHT22;7036;50.834;4.718;2023-06-14T12:22:37;27.70;40.50
13928;DHT22;7036;50.834;4.718;2023-06-14T12:25:04;27.70;40.40
13928;DHT22;7036;50.834;4.718;2023-06-14T12:27:31;27.70;40.30
13928;DHT22;7036;50.834;4.718;2023-06-14T12:30:02;27.80;40.40
13928;DHT22;7036;50.834;4.718;2023-06-14T12:32:28;27.80;40.40
13928;DHT22;7036;50.834;4.718;2023-06-14T12:34:55;27.80;40.30
13928;DHT22;7036;50.834;4.718;2023-06-14T12:37:21;27.80;40.00
13928;DHT22;7036;50.834;4.718;2023-06-14T12:39:48;27.80;40.00
13928;DHT22;7036;50.834;4.718;2023-06-14T12:42:15;27.80;40.30
13928;DHT22;7036;50.834;4.718;2023-06-14T12:44:42;27.80;40.10
13928;DHT22;7036;50.834;4.718;2023-06-14T12:47:09;27.80;39.90
13928;DHT22;7036;50.834;4.718;2023-06-14T12:49:38;27.80;39.80
13928;DHT22;7036;50.834;4.718;2023-06-14T12:52:04;27.80;40.10
13928;DHT22;7036;50.834;4.718;2023-06-14T12:54:32;27.80;40.40
13928;DHT22;7036;50.834;4.718;2023-06-14T12:56:59;27.80;40.40
13928;DHT22;7036;50.834;4.718;2023-06-14T12:59:26;27.80;40.30
13928;DHT22;7036;50.834;4.718;2023-06-14T13:01:54;27.80;40.30
13928;DHT22;7036;50.834;4.718;2023-06-14T13:04:20;27.80;40.30
13928;DHT22;7036;50.834;4.718;2023-06-14T13:06:47;27.80;40.20
13928;DHT22;7036;50.834;4.718;2023-06-14T13:09:14;27.80;40.10
13928;DHT22;7036;50.834;4.718;2023-06-14T13:11:41;27.80;40.00
13928;DHT22;7036;50.834;4.718;2023-06-14T13:14:09;27.80;39.40
13928;DHT22;7036;50.834;4.718;2023-06-14T13:16:35;27.80;39.30
13928;DHT22;7036;50.834;4.718;2023-06-14T13:19:02;27.80;39.60
13928;DHT22;7036;50.834;4.718;2023-06-14T13:21:29;27.80;39.00
13928;DHT22;7036;50.834;4.718;2023-06-14T13:23:56;27.80;39.40
13928;DHT22;7036;50.834;4.718;2023-06-14T13:26:23;27.80;39.50
13928;DHT22;7036;50.834;4.718;2023-06-14T13:28:50;27.80;39.60
13928;DHT22;7036;50.834;4.718;2023-06-14T13:31:18;27.80;39.50
13928;DHT22;7036;50.834;4.718;2023-06-14T13:33:44;27.80;39.50
13928;DHT22;7036;50.834;4.718;2023-06-14T13:36:11;27.80;39.50
13928;DHT22;7036;50.834;4.718;2023-06-14T13:38:42;27.80;39.50
13928;DHT22;7036;50.834;4.718;2023-06-14T13:41:06;27.80;38.90
13928;DHT22;7036;50.834;4.718;2023-06-14T13:43:36;27.80;39.20
13928;DHT22;7036;50.834;4.718;2023-06-14T13:46:06;27.80;38.90
13928;DHT22;7036;50.834;4.718;2023-06-14T13:48:32;27.80;38.80
13928;DHT22;7036;50.834;4.718;2023-06-14T13:51:00;27.80;38.80
13928;DHT22;7036;50.834;4.718;2023-06-14T13:53:30;27.80;38.80
13928;DHT22;7036;50.834;4.718;2023-06-14T13:56:02;27.80;38.80
13928;DHT22;7036;50.834;4.718;2023-06-14T13:58:29;27.90;38.50
13928;DHT22;7036;50.834;4.718;2023-06-14T14:00:57;27.80;38.70
13928;DHT22;7036;50.834;4.718;2023-06-14T14:03:24;27.80;38.60
13928;DHT22;7036;50.834;4.718;2023-06-14T14:05:51;27.80;38.50
13928;DHT22;7036;50.834;4.718;2023-06-14T14:08:18;27.80;38.40
13928;DHT22;7036;50.834;4.718;2023-06-14T14:10:45;27.80;38.20
13928;DHT22;7036;50.834;4.718;2023-06-14T14:13:16;27.80;37.50
13928;DHT22;7036;50.834;4.718;2023-06-14T14:15:44;27.80;37.30
13928;DHT22;7036;50.834;4.718;2023-06-14T14:18:10;27.80;37.20
13928;DHT22;7036;50.834;4.718;2023-06-14T14:20:43;27.80;36.90
13928;DHT22;7036;50.834;4.718;2023-06-14T14:23:14;27.80;37.40
13928;DHT22;7036;50.834;4.718;2023-06-14T14:25:43;27.80;37.20
13928;DHT22;7036;50.834;4.718;2023-06-14T14:28:08;27.90;37.50
13928;DHT22;7036;50.834;4.718;2023-06-14T14:30:37;27.90;37.00
13928;DHT22;7036;50.834;4.718;2023-06-14T14:33:04;27.90;37.00
13928;DHT22;7036;50.834;4.718;2023-06-14T14:35:31;27.90;37.00
13928;DHT22;7036;50.834;4.718;2023-06-14T14:37:58;28.00;37.20
13928;DHT22;7036;50.834;4.718;2023-06-14T14:40:25;28.00;37.10
13928;DHT22;7036;50.834;4.718;2023-06-14T14:42:52;28.00;37.60
13928;DHT22;7036;50.834;4.718;2023-06-14T14:45:24;28.00;37.30
13928;DHT22;7036;50.834;4.718;2023-06-14T14:47:57;28.00;37.20
13928;DHT22;7036;50.834;4.718;2023-06-14T14:50:27;28.00;36.90
13928;DHT22;7036;50.834;4.718;2023-06-14T14:52:57;28.00;36.70
13928;DHT22;7036;50.834;4.718;2023-06-14T14:55:21;28.00;36.10
13928;DHT22;7036;50.834;4.718;2023-06-14T14:57:49;28.00;36.50
13928;DHT22;7036;50.834;4.718;2023-06-14T15:00:16;28.00;36.50
13928;DHT22;7036;50.834;4.718;2023-06-14T15:02:44;28.00;36.40
13928;DHT22;7036;50.834;4.718;2023-06-14T15:05:13;28.00;36.40
13928;DHT22;7036;50.834;4.718;2023-06-14T15:07:45;28.00;36.20
13928;DHT22;7036;50.834;4.718;2023-06-14T15:10:10;28.00;35.90
13928;DHT22;7036;50.834;4.718;2023-06-14T15:12:39;28.00;34.90
13928;DHT22;7036;50.834;4.718;2023-06-14T15:15:06;28.00;35.10
13928;DHT22;7036;50.834;4.718;2023-06-14T15:17:34;28.00;35.30
13928;DHT22;7036;50.834;4.718;2023-06-14T15:20:03;28.10;35.50
13928;DHT22;7036;50.834;4.718;2023-06-14T15:22:30;28.00;35.30
13928;DHT22;7036;50.834;4.718;2023-06-14T15:24:57;28.10;35.60
13928;DHT22;7036;50.834;4.718;2023-06-14T15:27:29;28.10;35.80
13928;DHT22;7036;50.834;4.718;2023-06-14T15:29:53;28.10;35.70
13928;DHT22;7036;50.834;4.718;2023-06-14T15:32:21;28.10;35.20
13928;DHT22;7036;50.834;4.718;2023-06-14T15:34:50;28.10;35.50
13928;DHT22;7036;50.834;4.718;2023-06-14T15:37:16;28.20;35.30
13928;DHT22;7036;50.834;4.718;2023-06-14T15:39:43;28.20;35.30
13928;DHT22;7036;50.834;4.718;2023-06-14T15:42:11;28.20;35.30
13928;DHT22;7036;50.834;4.718;2023-06-14T15:44:38;28.20;35.40
13928;DHT22;7036;50.834;4.718;2023-06-14T15:47:08;28.20;35.50
13928;DHT22;7036;50.834;4.718;2023-06-14T15:49:35;28.20;35.40
13928;DHT22;7036;50.834;4.718;2023-06-14T15:52:02;28.20;35.30
13928;DHT22;7036;50.834;4.718;2023-06-14T15:54:29;28.20;35.40